sensor_id;sensor_type;location;lat;lon;timestamp;P1;durP1;ratioP1;P2;durP2;ratioP2
15202;SDS011;7702;51.046;5.184;2022-11-20T00:00:55;18.70;;;13.87;;
15202;SDS011;7702;51.046;5.184;2022-11-20T00:03:21;18.07;;;13.43;;
15202;SDS011;7702;51.046;5.184;2022-11-20T00:05:47;22.80;;;14.63;;
15202;SDS011;7702;51.046;5.184;2022-11-20T00:08:13;19.07;;;13.33;;
15202;SDS011;7702;51.046;5.184;2022-11-20T00:10:39;22.07;;;14.73;;
15202;SDS011;7702;51.046;5.184;2022-11-20T00:13:06;21.67;;;14.07;;
15202;SDS011;7702;51.046;5.184;2022-11-20T00:15:32;20.07;;;13.83;;
15202;SDS011;7702;51.046;5.184;2022-11-20T00:17:58;20.17;;;13.23;;
15202;SDS011;7702;51.046;5.184;2022-11-20T00:20:23;20.43;;;13.87;;
15202;SDS011;7702;51.046;5.184;2022-11-20T00:22:50;22.27;;;14.93;;
15202;SDS011;7702;51.046;5.184;2022-11-20T00:25:16;18.00;;;13.93;;
15202;SDS011;7702;51.046;5.184;2022-11-20T00:27:41;18.83;;;14.13;;
15202;SDS011;7702;51.046;5.184;2022-11-20T00:30:08;20.63;;;14.60;;
15202;SDS011;7702;51.046;5.184;2022-11-20T00:32:34;22.10;;;14.87;;
15202;SDS011;7702;51.046;5.184;2022-11-20T00:35:00;19.43;;;14.43;;
15202;SDS011;7702;51.046;5.184;2022-11-20T00:37:25;20.47;;;13.77;;
15202;SDS011;7702;51.046;5.184;2022-11-20T00:39:51;20.03;;;14.13;;
15202;SDS011;7702;51.046;5.184;2022-11-20T00:42:17;19.27;;;13.80;;
15202;SDS011;7702;51.046;5.184;2022-11-20T00:44:43;20.63;;;14.13;;
15202;SDS011;7702;51.046;5.184;2022-11-20T00:47:09;20.77;;;14.10;;
15202;SDS011;7702;51.046;5.184;2022-11-20T00:49:35;19.40;;;14.30;;
15202;SDS011;7702;51.046;5.184;2022-11-20T00:52:00;21.57;;;14.93;;
15202;SDS011;7702;51.046;5.184;2022-11-20T00:54:26;19.23;;;14.03;;
15202;SDS011;7702;51.046;5.184;2022-11-20T00:56:55;21.37;;;15.23;;
15202;SDS011;7702;51.046;5.184;2022-11-20T00:59:20;18.80;;;14.13;;
15202;SDS011;7702;51.046;5.184;2022-11-20T01:01:46;19.67;;;14.33;;
15202;SDS011;7702;51.046;5.184;2022-11-20T01:04:12;20.73;;;14.60;;
15202;SDS011;7702;51.046;5.184;2022-11-20T01:06:38;21.23;;;14.40;;
15202;SDS011;7702;51.046;5.184;2022-11-20T01:09:06;22.30;;;15.10;;
15202;SDS011;7702;51.046;5.184;2022-11-20T01:11:35;18.90;;;13.87;;
15202;SDS011;7702;51.046;5.184;2022-11-20T01:14:04;20.17;;;14.70;;
15202;SDS011;7702;51.046;5.184;2022-11-20T01:16:34;18.10;;;14.13;;
15202;SDS011;7702;51.046;5.184;2022-11-20T01:19:04;18.80;;;14.00;;
15202;SDS011;7702;51.046;5.184;2022-11-20T01:21:33;25.60;;;14.20;;
15202;SDS011;7702;51.046;5.184;2022-11-20T01:24:00;19.77;;;14.53;;
15202;SDS011;7702;51.046;5.184;2022-11-20T01:26:30;18.37;;;13.80;;
15202;SDS011;7702;51.046;5.184;2022-11-20T01:28:57;20.17;;;14.40;;
15202;SDS011;7702;51.046;5.184;2022-11-20T01:34:01;17.70;;;13.83;;
15202;SDS011;7702;51.046;5.184;2022-11-20T01:36:31;19.90;;;14.47;;
15202;SDS011;7702;51.046;5.184;2022-11-20T01:39:00;18.00;;;13.57;;
15202;SDS011;7702;51.046;5.184;2022-11-20T01:41:29;17.97;;;13.33;;
15202;SDS011;7702;51.046;5.184;2022-11-20T01:44:15;17.97;;;12.03;;
15202;SDS011;7702;51.046;5.184;2022-11-20T01:46:59;19.50;;;13.37;;
15202;SDS011;7702;51.046;5.184;2022-11-20T01:52:05;17.70;;;13.53;;
15202;SDS011;7702;51.046;5.184;2022-11-20T01:54:42;17.63;;;13.43;;
15202;SDS011;7702;51.046;5.184;2022-11-20T01:57:16;17.67;;;13.20;;
15202;SDS011;7702;51.046;5.184;2022-11-20T01:59:47;19.23;;;13.63;;
15202;SDS011;7702;51.046;5.184;2022-11-20T02:02:20;18.60;;;13.07;;
15202;SDS011;7702;51.046;5.184;2022-11-20T02:04:46;18.63;;;14.20;;
15202;SDS011;7702;51.046;5.184;2022-11-20T02:07:14;20.07;;;13.17;;
15202;SDS011;7702;51.046;5.184;2022-11-20T02:09:40;17.80;;;14.40;;
15202;SDS011;7702;51.046;5.184;2022-11-20T02:12:06;20.80;;;13.67;;
15202;SDS011;7702;51.046;5.184;2022-11-20T02:14:52;18.93;;;13.73;;
15202;SDS011;7702;51.046;5.184;2022-11-20T02:17:17;16.93;;;12.87;;
15202;SDS011;7702;51.046;5.184;2022-11-20T02:19:43;19.30;;;13.67;;
15202;SDS011;7702;51.046;5.184;2022-11-20T02:22:18;17.90;;;13.17;;
15202;SDS011;7702;51.046;5.184;2022-11-20T02:24:56;18.60;;;13.50;;
15202;SDS011;7702;51.046;5.184;2022-11-20T02:27:26;17.03;;;13.43;;
15202;SDS011;7702;51.046;5.184;2022-11-20T02:29:53;17.80;;;13.57;;
15202;SDS011;7702;51.046;5.184;2022-11-20T02:32:29;19.17;;;12.37;;
15202;SDS011;7702;51.046;5.184;2022-11-20T02:37:44;16.67;;;12.87;;
15202;SDS011;7702;51.046;5.184;2022-11-20T02:40:13;19.20;;;13.57;;
15202;SDS011;7702;51.046;5.184;2022-11-20T02:42:39;18.13;;;13.30;;
15202;SDS011;7702;51.046;5.184;2022-11-20T02:45:05;20.50;;;14.03;;
15202;SDS011;7702;51.046;5.184;2022-11-20T02:47:32;19.73;;;13.37;;
15202;SDS011;7702;51.046;5.184;2022-11-20T02:49:58;18.20;;;13.50;;
15202;SDS011;7702;51.046;5.184;2022-11-20T02:52:24;19.10;;;14.27;;
15202;SDS011;7702;51.046;5.184;2022-11-20T02:54:50;20.40;;;14.40;;
15202;SDS011;7702;51.046;5.184;2022-11-20T02:57:16;17.53;;;13.67;;
15202;SDS011;7702;51.046;5.184;2022-11-20T02:59:42;19.70;;;13.80;;
15202;SDS011;7702;51.046;5.184;2022-11-20T03:02:07;17.87;;;14.23;;
15202;SDS011;7702;51.046;5.184;2022-11-20T03:04:33;20.10;;;14.77;;
15202;SDS011;7702;51.046;5.184;2022-11-20T03:06:58;18.70;;;14.27;;
15202;SDS011;7702;51.046;5.184;2022-11-20T03:09:25;21.67;;;13.80;;
15202;SDS011;7702;51.046;5.184;2022-11-20T03:11:50;18.10;;;13.50;;
15202;SDS011;7702;51.046;5.184;2022-11-20T03:14:16;20.47;;;14.67;;
15202;SDS011;7702;51.046;5.184;2022-11-20T03:16:42;17.13;;;13.80;;
15202;SDS011;7702;51.046;5.184;2022-11-20T03:19:07;21.00;;;15.10;;
15202;SDS011;7702;51.046;5.184;2022-11-20T03:21:33;22.03;;;15.00;;
15202;SDS011;7702;51.046;5.184;2022-11-20T03:23:59;21.97;;;14.57;;
15202;SDS011;7702;51.046;5.184;2022-11-20T03:26:26;21.53;;;15.03;;
15202;SDS011;7702;51.046;5.184;2022-11-20T03:28:53;19.70;;;15.00;;
15202;SDS011;7702;51.046;5.184;2022-11-20T03:31:22;21.87;;;14.87;;
15202;SDS011;7702;51.046;5.184;2022-11-20T03:33:49;19.53;;;14.23;;
15202;SDS011;7702;51.046;5.184;2022-11-20T03:36:16;20.63;;;14.90;;
15202;SDS011;7702;51.046;5.184;2022-11-20T03:38:42;18.13;;;14.43;;
15202;SDS011;7702;51.046;5.184;2022-11-20T03:41:09;20.77;;;14.90;;
15202;SDS011;7702;51.046;5.184;2022-11-20T03:43:37;17.77;;;14.23;;
15202;SDS011;7702;51.046;5.184;2022-11-20T03:46:03;18.43;;;14.37;;
15202;SDS011;7702;51.046;5.184;2022-11-20T03:48:30;21.27;;;15.03;;
15202;SDS011;7702;51.046;5.184;2022-11-20T03:51:06;23.60;;;15.47;;
15202;SDS011;7702;51.046;5.184;2022-11-20T03:53:36;21.60;;;15.57;;
15202;SDS011;7702;51.046;5.184;2022-11-20T03:56:02;20.53;;;15.43;;
15202;SDS011;7702;51.046;5.184;2022-11-20T03:58:28;22.83;;;16.57;;
15202;SDS011;7702;51.046;5.184;2022-11-20T04:00:53;24.27;;;17.90;;
15202;SDS011;7702;51.046;5.184;2022-11-20T04:03:19;22.97;;;17.63;;
15202;SDS011;7702;51.046;5.184;2022-11-20T04:05:45;22.60;;;16.33;;
15202;SDS011;7702;51.046;5.184;2022-11-20T04:08:11;21.43;;;16.63;;
15202;SDS011;7702;51.046;5.184;2022-11-20T04:10:37;22.47;;;16.40;;
15202;SDS011;7702;51.046;5.184;2022-11-20T04:13:02;20.80;;;15.97;;
15202;SDS011;7702;51.046;5.184;2022-11-20T04:15:28;22.53;;;15.77;;
15202;SDS011;7702;51.046;5.184;2022-11-20T04:17:54;22.40;;;14.87;;
15202;SDS011;7702;51.046;5.184;2022-11-20T04:20:20;19.20;;;14.90;;
15202;SDS011;7702;51.046;5.184;2022-11-20T04:22:46;20.00;;;14.27;;
15202;SDS011;7702;51.046;5.184;2022-11-20T04:25:11;19.47;;;14.07;;
15202;SDS011;7702;51.046;5.184;2022-11-20T04:27:37;18.97;;;15.17;;
15202;SDS011;7702;51.046;5.184;2022-11-20T04:30:03;23.37;;;16.27;;
15202;SDS011;7702;51.046;5.184;2022-11-20T04:32:29;21.50;;;15.47;;
15202;SDS011;7702;51.046;5.184;2022-11-20T04:34:55;20.60;;;15.23;;
15202;SDS011;7702;51.046;5.184;2022-11-20T04:37:20;21.13;;;15.37;;
15202;SDS011;7702;51.046;5.184;2022-11-20T04:39:46;22.17;;;15.67;;
15202;SDS011;7702;51.046;5.184;2022-11-20T04:42:11;20.10;;;15.27;;
15202;SDS011;7702;51.046;5.184;2022-11-20T04:44:55;23.00;;;15.80;;
15202;SDS011;7702;51.046;5.184;2022-11-20T04:47:22;20.73;;;14.47;;
15202;SDS011;7702;51.046;5.184;2022-11-20T04:49:48;22.70;;;15.90;;
15202;SDS011;7702;51.046;5.184;2022-11-20T04:52:14;22.80;;;15.47;;
15202;SDS011;7702;51.046;5.184;2022-11-20T04:54:39;25.40;;;16.73;;
15202;SDS011;7702;51.046;5.184;2022-11-20T04:57:05;27.30;;;15.83;;
15202;SDS011;7702;51.046;5.184;2022-11-20T04:59:30;22.10;;;15.83;;
15202;SDS011;7702;51.046;5.184;2022-11-20T05:01:56;26.20;;;16.87;;
15202;SDS011;7702;51.046;5.184;2022-11-20T05:04:22;21.50;;;15.70;;
15202;SDS011;7702;51.046;5.184;2022-11-20T05:06:49;25.07;;;16.20;;
15202;SDS011;7702;51.046;5.184;2022-11-20T05:09:15;25.47;;;16.03;;
15202;SDS011;7702;51.046;5.184;2022-11-20T05:11:41;26.40;;;15.77;;
15202;SDS011;7702;51.046;5.184;2022-11-20T05:14:07;27.37;;;16.13;;
15202;SDS011;7702;51.046;5.184;2022-11-20T05:16:33;23.70;;;16.20;;
15202;SDS011;7702;51.046;5.184;2022-11-20T05:19:00;25.43;;;17.57;;
15202;SDS011;7702;51.046;5.184;2022-11-20T05:21:26;25.10;;;16.23;;
15202;SDS011;7702;51.046;5.184;2022-11-20T05:23:52;27.20;;;16.00;;
15202;SDS011;7702;51.046;5.184;2022-11-20T05:26:19;24.30;;;17.20;;
15202;SDS011;7702;51.046;5.184;2022-11-20T05:28:46;25.87;;;15.70;;
15202;SDS011;7702;51.046;5.184;2022-11-20T05:31:22;25.17;;;16.67;;
15202;SDS011;7702;51.046;5.184;2022-11-20T05:33:49;27.80;;;17.60;;
15202;SDS011;7702;51.046;5.184;2022-11-20T05:36:15;25.00;;;16.60;;
15202;SDS011;7702;51.046;5.184;2022-11-20T05:38:41;27.90;;;17.47;;
15202;SDS011;7702;51.046;5.184;2022-11-20T05:41:12;23.50;;;15.90;;
15202;SDS011;7702;51.046;5.184;2022-11-20T05:43:40;22.23;;;16.37;;
15202;SDS011;7702;51.046;5.184;2022-11-20T05:46:07;21.77;;;15.50;;
15202;SDS011;7702;51.046;5.184;2022-11-20T05:48:35;25.57;;;15.80;;
15202;SDS011;7702;51.046;5.184;2022-11-20T05:51:03;23.50;;;16.20;;
15202;SDS011;7702;51.046;5.184;2022-11-20T05:53:30;25.10;;;16.97;;
15202;SDS011;7702;51.046;5.184;2022-11-20T05:58:24;26.17;;;16.50;;
15202;SDS011;7702;51.046;5.184;2022-11-20T06:00:50;30.47;;;17.17;;
15202;SDS011;7702;51.046;5.184;2022-11-20T06:03:15;27.87;;;17.90;;
15202;SDS011;7702;51.046;5.184;2022-11-20T06:05:41;29.27;;;18.00;;
15202;SDS011;7702;51.046;5.184;2022-11-20T06:08:07;28.60;;;18.60;;
15202;SDS011;7702;51.046;5.184;2022-11-20T06:10:33;26.53;;;17.50;;
15202;SDS011;7702;51.046;5.184;2022-11-20T06:12:58;27.37;;;17.93;;
15202;SDS011;7702;51.046;5.184;2022-11-20T06:15:24;28.33;;;18.43;;
15202;SDS011;7702;51.046;5.184;2022-11-20T06:17:53;28.57;;;17.60;;
15202;SDS011;7702;51.046;5.184;2022-11-20T06:20:20;29.83;;;19.47;;
15202;SDS011;7702;51.046;5.184;2022-11-20T06:22:46;31.57;;;18.93;;
15202;SDS011;7702;51.046;5.184;2022-11-20T06:25:12;32.70;;;19.70;;
15202;SDS011;7702;51.046;5.184;2022-11-20T06:27:38;30.43;;;19.73;;
15202;SDS011;7702;51.046;5.184;2022-11-20T06:30:05;32.47;;;19.83;;
15202;SDS011;7702;51.046;5.184;2022-11-20T06:32:30;30.80;;;19.83;;
15202;SDS011;7702;51.046;5.184;2022-11-20T06:34:57;31.50;;;18.43;;
15202;SDS011;7702;51.046;5.184;2022-11-20T06:37:23;29.73;;;19.57;;
15202;SDS011;7702;51.046;5.184;2022-11-20T06:39:48;30.27;;;19.40;;
15202;SDS011;7702;51.046;5.184;2022-11-20T06:42:14;29.13;;;19.73;;
15202;SDS011;7702;51.046;5.184;2022-11-20T06:44:40;32.17;;;19.77;;
15202;SDS011;7702;51.046;5.184;2022-11-20T06:47:06;29.67;;;18.43;;
15202;SDS011;7702;51.046;5.184;2022-11-20T06:49:32;35.60;;;20.43;;
15202;SDS011;7702;51.046;5.184;2022-11-20T06:51:59;29.10;;;19.17;;
15202;SDS011;7702;51.046;5.184;2022-11-20T06:54:24;30.70;;;19.70;;
15202;SDS011;7702;51.046;5.184;2022-11-20T06:56:50;30.50;;;19.03;;
15202;SDS011;7702;51.046;5.184;2022-11-20T06:59:16;27.27;;;18.77;;
15202;SDS011;7702;51.046;5.184;2022-11-20T07:01:41;26.30;;;18.97;;
15202;SDS011;7702;51.046;5.184;2022-11-20T07:04:07;27.20;;;18.33;;
15202;SDS011;7702;51.046;5.184;2022-11-20T07:06:33;26.97;;;18.83;;
15202;SDS011;7702;51.046;5.184;2022-11-20T07:08:59;25.87;;;16.93;;
15202;SDS011;7702;51.046;5.184;2022-11-20T07:11:26;29.33;;;18.40;;
15202;SDS011;7702;51.046;5.184;2022-11-20T07:13:52;30.70;;;18.13;;
15202;SDS011;7702;51.046;5.184;2022-11-20T07:16:17;28.43;;;18.80;;
15202;SDS011;7702;51.046;5.184;2022-11-20T07:18:43;29.40;;;19.30;;
15202;SDS011;7702;51.046;5.184;2022-11-20T07:21:09;24.70;;;17.97;;
15202;SDS011;7702;51.046;5.184;2022-11-20T07:23:35;29.57;;;19.03;;
15202;SDS011;7702;51.046;5.184;2022-11-20T07:26:08;30.83;;;18.43;;
15202;SDS011;7702;51.046;5.184;2022-11-20T07:28:35;28.57;;;17.40;;
15202;SDS011;7702;51.046;5.184;2022-11-20T07:31:02;31.17;;;20.07;;
15202;SDS011;7702;51.046;5.184;2022-11-20T07:33:28;31.47;;;19.10;;
15202;SDS011;7702;51.046;5.184;2022-11-20T07:35:54;28.70;;;18.23;;
15202;SDS011;7702;51.046;5.184;2022-11-20T07:38:19;32.53;;;19.70;;
15202;SDS011;7702;51.046;5.184;2022-11-20T07:40:45;31.40;;;18.53;;
15202;SDS011;7702;51.046;5.184;2022-11-20T07:43:11;30.97;;;18.37;;
15202;SDS011;7702;51.046;5.184;2022-11-20T07:45:36;29.53;;;19.30;;
15202;SDS011;7702;51.046;5.184;2022-11-20T07:48:02;30.00;;;19.53;;
15202;SDS011;7702;51.046;5.184;2022-11-20T07:50:28;28.37;;;19.27;;
15202;SDS011;7702;51.046;5.184;2022-11-20T07:53:04;29.90;;;19.33;;
15202;SDS011;7702;51.046;5.184;2022-11-20T07:55:30;31.07;;;19.37;;
15202;SDS011;7702;51.046;5.184;2022-11-20T07:57:56;31.67;;;19.27;;
15202;SDS011;7702;51.046;5.184;2022-11-20T08:00:23;33.13;;;19.77;;
15202;SDS011;7702;51.046;5.184;2022-11-20T08:02:49;30.57;;;19.93;;
15202;SDS011;7702;51.046;5.184;2022-11-20T08:05:15;34.23;;;20.27;;
15202;SDS011;7702;51.046;5.184;2022-11-20T08:07:41;31.73;;;20.67;;
15202;SDS011;7702;51.046;5.184;2022-11-20T08:10:09;32.30;;;19.87;;
15202;SDS011;7702;51.046;5.184;2022-11-20T08:12:36;35.47;;;21.60;;
15202;SDS011;7702;51.046;5.184;2022-11-20T08:15:27;32.30;;;20.60;;
15202;SDS011;7702;51.046;5.184;2022-11-20T08:17:58;34.27;;;20.47;;
15202;SDS011;7702;51.046;5.184;2022-11-20T08:20:28;33.27;;;20.90;;
15202;SDS011;7702;51.046;5.184;2022-11-20T08:22:57;33.80;;;20.47;;
15202;SDS011;7702;51.046;5.184;2022-11-20T08:25:27;31.80;;;18.63;;
15202;SDS011;7702;51.046;5.184;2022-11-20T08:27:56;35.57;;;20.33;;
15202;SDS011;7702;51.046;5.184;2022-11-20T08:30:23;35.00;;;19.80;;
15202;SDS011;7702;51.046;5.184;2022-11-20T08:32:49;34.67;;;20.43;;
15202;SDS011;7702;51.046;5.184;2022-11-20T08:35:14;36.07;;;20.50;;
15202;SDS011;7702;51.046;5.184;2022-11-20T08:37:40;28.27;;;20.07;;
15202;SDS011;7702;51.046;5.184;2022-11-20T08:40:08;32.67;;;19.37;;
15202;SDS011;7702;51.046;5.184;2022-11-20T08:42:35;34.90;;;20.97;;
15202;SDS011;7702;51.046;5.184;2022-11-20T08:45:00;33.43;;;20.13;;
15202;SDS011;7702;51.046;5.184;2022-11-20T08:47:26;36.43;;;21.63;;
15202;SDS011;7702;51.046;5.184;2022-11-20T08:49:51;31.30;;;20.20;;
15202;SDS011;7702;51.046;5.184;2022-11-20T08:52:17;35.70;;;21.33;;
15202;SDS011;7702;51.046;5.184;2022-11-20T08:54:42;33.77;;;20.77;;
15202;SDS011;7702;51.046;5.184;2022-11-20T08:57:08;33.70;;;19.87;;
15202;SDS011;7702;51.046;5.184;2022-11-20T08:59:34;36.60;;;21.87;;
15202;SDS011;7702;51.046;5.184;2022-11-20T09:01:59;36.17;;;20.33;;
15202;SDS011;7702;51.046;5.184;2022-11-20T09:04:25;33.97;;;20.33;;
15202;SDS011;7702;51.046;5.184;2022-11-20T09:06:51;36.77;;;21.37;;
15202;SDS011;7702;51.046;5.184;2022-11-20T09:09:17;39.57;;;22.97;;
15202;SDS011;7702;51.046;5.184;2022-11-20T09:11:43;36.63;;;23.17;;
15202;SDS011;7702;51.046;5.184;2022-11-20T09:14:09;37.57;;;23.60;;
15202;SDS011;7702;51.046;5.184;2022-11-20T09:16:35;39.23;;;22.47;;
15202;SDS011;7702;51.046;5.184;2022-11-20T09:19:00;32.67;;;21.03;;
15202;SDS011;7702;51.046;5.184;2022-11-20T09:21:26;37.57;;;21.90;;
15202;SDS011;7702;51.046;5.184;2022-11-20T09:23:52;38.03;;;21.00;;
15202;SDS011;7702;51.046;5.184;2022-11-20T09:26:17;37.07;;;21.23;;
15202;SDS011;7702;51.046;5.184;2022-11-20T09:28:44;37.23;;;20.80;;
15202;SDS011;7702;51.046;5.184;2022-11-20T09:31:21;36.03;;;20.30;;
15202;SDS011;7702;51.046;5.184;2022-11-20T09:33:48;35.47;;;20.57;;
15202;SDS011;7702;51.046;5.184;2022-11-20T09:36:14;34.93;;;20.33;;
15202;SDS011;7702;51.046;5.184;2022-11-20T09:38:40;34.47;;;20.50;;
15202;SDS011;7702;51.046;5.184;2022-11-20T09:41:06;34.87;;;20.97;;
15202;SDS011;7702;51.046;5.184;2022-11-20T09:49:25;36.87;;;20.43;;
15202;SDS011;7702;51.046;5.184;2022-11-20T09:54:49;38.97;;;20.87;;
15202;SDS011;7702;51.046;5.184;2022-11-20T09:57:17;36.93;;;21.63;;
15202;SDS011;7702;51.046;5.184;2022-11-20T09:59:48;37.43;;;21.20;;
15202;SDS011;7702;51.046;5.184;2022-11-20T10:10:18;42.47;;;21.80;;
15202;SDS011;7702;51.046;5.184;2022-11-20T10:26:51;41.10;;;22.77;;
15202;SDS011;7702;51.046;5.184;2022-11-20T10:29:29;47.13;;;22.97;;
15202;SDS011;7702;51.046;5.184;2022-11-20T10:37:40;38.40;;;21.70;;
15202;SDS011;7702;51.046;5.184;2022-11-20T10:43:00;41.03;;;20.60;;
15202;SDS011;7702;51.046;5.184;2022-11-20T10:45:33;46.93;;;23.47;;
15202;SDS011;7702;51.046;5.184;2022-11-20T10:48:16;44.13;;;22.23;;
15202;SDS011;7702;51.046;5.184;2022-11-20T10:51:02;40.50;;;22.57;;
15202;SDS011;7702;51.046;5.184;2022-11-20T10:56:52;45.03;;;22.90;;
15202;SDS011;7702;51.046;5.184;2022-11-20T11:02:22;41.47;;;21.73;;
15202;SDS011;7702;51.046;5.184;2022-11-20T11:04:52;43.13;;;24.13;;
15202;SDS011;7702;51.046;5.184;2022-11-20T11:07:30;40.97;;;21.73;;
15202;SDS011;7702;51.046;5.184;2022-11-20T11:10:00;40.27;;;22.77;;
15202;SDS011;7702;51.046;5.184;2022-11-20T11:12:27;42.43;;;22.57;;
15202;SDS011;7702;51.046;5.184;2022-11-20T11:14:54;43.03;;;22.83;;
15202;SDS011;7702;51.046;5.184;2022-11-20T11:17:28;44.43;;;23.63;;
15202;SDS011;7702;51.046;5.184;2022-11-20T11:19:59;44.20;;;21.07;;
15202;SDS011;7702;51.046;5.184;2022-11-20T11:22:31;41.87;;;21.40;;
15202;SDS011;7702;51.046;5.184;2022-11-20T11:25:00;42.07;;;21.33;;
15202;SDS011;7702;51.046;5.184;2022-11-20T11:27:27;43.43;;;21.80;;
15202;SDS011;7702;51.046;5.184;2022-11-20T11:30:01;39.00;;;22.17;;
15202;SDS011;7702;51.046;5.184;2022-11-20T11:32:36;46.73;;;22.53;;
15202;SDS011;7702;51.046;5.184;2022-11-20T11:35:02;43.33;;;21.53;;
15202;SDS011;7702;51.046;5.184;2022-11-20T11:37:33;44.70;;;20.47;;
15202;SDS011;7702;51.046;5.184;2022-11-20T11:40:00;41.03;;;21.47;;
15202;SDS011;7702;51.046;5.184;2022-11-20T11:42:28;43.23;;;23.03;;
15202;SDS011;7702;51.046;5.184;2022-11-20T11:44:55;47.03;;;23.53;;
15202;SDS011;7702;51.046;5.184;2022-11-20T11:47:30;37.30;;;20.30;;
15202;SDS011;7702;51.046;5.184;2022-11-20T11:52:51;42.03;;;21.63;;
15202;SDS011;7702;51.046;5.184;2022-11-20T11:55:29;42.70;;;22.77;;
15202;SDS011;7702;51.046;5.184;2022-11-20T11:58:16;40.93;;;21.63;;
15202;SDS011;7702;51.046;5.184;2022-11-20T12:01:04;42.00;;;21.97;;
15202;SDS011;7702;51.046;5.184;2022-11-20T12:03:37;39.20;;;21.10;;
15202;SDS011;7702;51.046;5.184;2022-11-20T12:06:15;41.93;;;22.00;;
15202;SDS011;7702;51.046;5.184;2022-11-20T12:11:23;44.60;;;22.57;;
15202;SDS011;7702;51.046;5.184;2022-11-20T12:16:51;37.77;;;21.07;;
15202;SDS011;7702;51.046;5.184;2022-11-20T12:19:18;36.20;;;20.43;;
15202;SDS011;7702;51.046;5.184;2022-11-20T12:24:34;35.60;;;18.40;;
15202;SDS011;7702;51.046;5.184;2022-11-20T12:30:21;37.23;;;20.10;;
15202;SDS011;7702;51.046;5.184;2022-11-20T12:32:55;32.93;;;19.17;;
15202;SDS011;7702;51.046;5.184;2022-11-20T12:41:27;31.47;;;17.30;;
15202;SDS011;7702;51.046;5.184;2022-11-20T13:01:31;25.60;;;14.47;;
15202;SDS011;7702;51.046;5.184;2022-11-20T13:06:59;24.47;;;18.00;;
15202;SDS011;7702;51.046;5.184;2022-11-20T13:09:29;49.50;;;41.43;;
15202;SDS011;7702;51.046;5.184;2022-11-20T13:20:11;5.73;;;4.93;;
15202;SDS011;7702;51.046;5.184;2022-11-20T13:25:21;9.17;;;7.33;;
15202;SDS011;7702;51.046;5.184;2022-11-20T13:27:51;6.30;;;5.50;;
15202;SDS011;7702;51.046;5.184;2022-11-20T13:30:18;4.67;;;3.80;;
15202;SDS011;7702;51.046;5.184;2022-11-20T13:32:55;5.93;;;2.90;;
15202;SDS011;7702;51.046;5.184;2022-11-20T13:35:26;5.90;;;2.70;;
15202;SDS011;7702;51.046;5.184;2022-11-20T13:38:12;6.57;;;2.87;;
15202;SDS011;7702;51.046;5.184;2022-11-20T13:40:58;7.80;;;3.00;;
15202;SDS011;7702;51.046;5.184;2022-11-20T13:43:48;5.10;;;2.60;;
15202;SDS011;7702;51.046;5.184;2022-11-20T13:46:14;5.30;;;2.80;;
15202;SDS011;7702;51.046;5.184;2022-11-20T13:48:41;6.07;;;2.77;;
15202;SDS011;7702;51.046;5.184;2022-11-20T13:54:51;27.33;;;21.00;;
15202;SDS011;7702;51.046;5.184;2022-11-20T13:59:57;17.50;;;12.30;;
15202;SDS011;7702;51.046;5.184;2022-11-20T14:02:26;9.13;;;3.97;;
15202;SDS011;7702;51.046;5.184;2022-11-20T14:04:56;9.77;;;2.83;;
15202;SDS011;7702;51.046;5.184;2022-11-20T14:07:25;7.47;;;6.67;;
15202;SDS011;7702;51.046;5.184;2022-11-20T14:10:01;12.50;;;9.57;;
15202;SDS011;7702;51.046;5.184;2022-11-20T14:12:31;12.23;;;4.73;;
15202;SDS011;7702;51.046;5.184;2022-11-20T14:14:58;9.10;;;7.07;;
15202;SDS011;7702;51.046;5.184;2022-11-20T14:17:32;8.57;;;7.63;;
15202;SDS011;7702;51.046;5.184;2022-11-20T14:20:06;7.90;;;3.10;;
15202;SDS011;7702;51.046;5.184;2022-11-20T14:22:39;8.20;;;3.40;;
15202;SDS011;7702;51.046;5.184;2022-11-20T14:28:10;11.97;;;6.57;;
15202;SDS011;7702;51.046;5.184;2022-11-20T14:30:44;4.53;;;3.20;;
15202;SDS011;7702;51.046;5.184;2022-11-20T14:33:12;6.53;;;4.80;;
15202;SDS011;7702;51.046;5.184;2022-11-20T14:35:44;6.03;;;2.90;;
15202;SDS011;7702;51.046;5.184;2022-11-20T14:38:13;6.57;;;5.77;;
15202;SDS011;7702;51.046;5.184;2022-11-20T14:40:42;8.23;;;7.40;;
15202;SDS011;7702;51.046;5.184;2022-11-20T14:43:24;8.50;;;6.50;;
15202;SDS011;7702;51.046;5.184;2022-11-20T14:48:23;4.43;;;3.70;;
15202;SDS011;7702;51.046;5.184;2022-11-20T14:50:58;5.07;;;3.23;;
15202;SDS011;7702;51.046;5.184;2022-11-20T14:53:24;6.67;;;2.47;;
15202;SDS011;7702;51.046;5.184;2022-11-20T14:55:54;6.40;;;3.13;;
15202;SDS011;7702;51.046;5.184;2022-11-20T14:58:23;6.83;;;3.53;;
15202;SDS011;7702;51.046;5.184;2022-11-20T15:00:54;5.37;;;2.67;;
15202;SDS011;7702;51.046;5.184;2022-11-20T15:03:22;5.90;;;3.20;;
15202;SDS011;7702;51.046;5.184;2022-11-20T15:05:48;6.60;;;3.53;;
15202;SDS011;7702;51.046;5.184;2022-11-20T15:08:15;10.23;;;5.53;;
15202;SDS011;7702;51.046;5.184;2022-11-20T15:10:45;5.03;;;3.80;;
15202;SDS011;7702;51.046;5.184;2022-11-20T15:13:16;4.30;;;3.63;;
15202;SDS011;7702;51.046;5.184;2022-11-20T15:15:55;3.73;;;3.37;;
15202;SDS011;7702;51.046;5.184;2022-11-20T15:21:00;6.23;;;5.73;;
15202;SDS011;7702;51.046;5.184;2022-11-20T15:23:28;4.80;;;3.07;;
15202;SDS011;7702;51.046;5.184;2022-11-20T15:25:54;3.53;;;3.23;;
15202;SDS011;7702;51.046;5.184;2022-11-20T15:28:22;4.17;;;3.00;;
15202;SDS011;7702;51.046;5.184;2022-11-20T15:30:58;5.33;;;3.30;;
15202;SDS011;7702;51.046;5.184;2022-11-20T15:33:24;9.20;;;3.23;;
15202;SDS011;7702;51.046;5.184;2022-11-20T15:35:49;3.77;;;3.10;;
15202;SDS011;7702;51.046;5.184;2022-11-20T15:38:15;3.50;;;2.77;;
15202;SDS011;7702;51.046;5.184;2022-11-20T15:40:41;9.10;;;5.90;;
15202;SDS011;7702;51.046;5.184;2022-11-20T15:43:06;14.43;;;7.70;;
15202;SDS011;7702;51.046;5.184;2022-11-20T15:45:33;26.87;;;12.87;;
15202;SDS011;7702;51.046;5.184;2022-11-20T15:53:35;7.30;;;5.77;;
15202;SDS011;7702;51.046;5.184;2022-11-20T15:56:05;6.90;;;6.13;;
15202;SDS011;7702;51.046;5.184;2022-11-20T15:58:31;6.33;;;4.43;;
15202;SDS011;7702;51.046;5.184;2022-11-20T16:00:56;9.50;;;7.27;;
15202;SDS011;7702;51.046;5.184;2022-11-20T16:03:22;6.20;;;5.60;;
15202;SDS011;7702;51.046;5.184;2022-11-20T16:05:48;22.60;;;20.43;;
15202;SDS011;7702;51.046;5.184;2022-11-20T16:08:14;8.20;;;5.10;;
15202;SDS011;7702;51.046;5.184;2022-11-20T16:10:40;5.93;;;4.53;;
15202;SDS011;7702;51.046;5.184;2022-11-20T16:13:13;4.43;;;4.00;;
15202;SDS011;7702;51.046;5.184;2022-11-20T16:16:00;9.50;;;8.60;;
15202;SDS011;7702;51.046;5.184;2022-11-20T16:18:30;7.73;;;6.93;;
15202;SDS011;7702;51.046;5.184;2022-11-20T16:20:56;5.43;;;4.93;;
15202;SDS011;7702;51.046;5.184;2022-11-20T16:23:22;9.60;;;7.10;;
15202;SDS011;7702;51.046;5.184;2022-11-20T16:25:48;7.07;;;6.00;;
15202;SDS011;7702;51.046;5.184;2022-11-20T16:28:15;6.93;;;5.13;;
15202;SDS011;7702;51.046;5.184;2022-11-20T16:30:41;7.40;;;6.53;;
15202;SDS011;7702;51.046;5.184;2022-11-20T16:33:11;5.37;;;4.73;;
15202;SDS011;7702;51.046;5.184;2022-11-20T16:35:42;5.70;;;5.17;;
15202;SDS011;7702;51.046;5.184;2022-11-20T16:38:07;7.10;;;5.27;;
15202;SDS011;7702;51.046;5.184;2022-11-20T16:40:33;9.10;;;5.17;;
15202;SDS011;7702;51.046;5.184;2022-11-20T16:43:06;6.60;;;5.97;;
15202;SDS011;7702;51.046;5.184;2022-11-20T16:45:39;7.77;;;5.40;;
15202;SDS011;7702;51.046;5.184;2022-11-20T16:48:07;6.87;;;6.10;;
15202;SDS011;7702;51.046;5.184;2022-11-20T16:50:37;9.13;;;5.60;;
15202;SDS011;7702;51.046;5.184;2022-11-20T16:53:12;10.47;;;6.03;;
15202;SDS011;7702;51.046;5.184;2022-11-20T16:55:38;7.60;;;5.33;;